createdAt,value
2018-05-14T00:00:11.937Z,67.21
2018-05-14T00:01:11.928Z,67.60
2018-05-14T00:02:11.911Z,68.27
2018-05-14T00:03:11.904Z,67.31
2018-05-14T00:04:11.883Z,67.60
2018-05-14T00:05:11.870Z,67.79
2018-05-14T00:06:11.857Z,67.88
2018-05-14T00:07:11.849Z,67.31
2018-05-14T00:08:11.831Z,66.93
2018-05-14T00:09:11.817Z,67.69
2018-05-14T00:10:12.269Z,68.17
2018-05-14T00:11:11.791Z,67.88
2018-05-14T00:12:11.778Z,67.88
2018-05-14T00:13:11.765Z,68.07
2018-05-14T00:14:11.757Z,67.21
2018-05-14T00:15:11.736Z,67.69
2018-05-14T00:16:11.723Z,67.79
2018-05-14T00:17:11.711Z,67.98
2018-05-14T00:18:11.694Z,67.79
2018-05-14T00:19:11.682Z,68.27
2018-05-14T00:20:11.670Z,68.42
2018-05-14T00:21:11.657Z,68.17
2018-05-14T00:22:11.641Z,67.85
2018-05-14T00:23:11.630Z,68.13
2018-05-14T00:24:11.618Z,68.42
2018-05-14T00:25:11.605Z,68.33
2018-05-14T00:26:11.591Z,68.71
2018-05-14T00:27:11.575Z,68.62
2018-05-14T00:28:11.559Z,69.19
2018-05-14T00:29:11.550Z,69.09
2018-05-14T00:30:11.532Z,69.09
2018-05-14T00:31:11.528Z,69.19
2018-05-14T00:32:11.507Z,69.00
2018-05-14T00:33:11.494Z,69.00
2018-05-14T00:34:11.477Z,69.19
2018-05-14T00:35:11.465Z,68.90
2018-05-14T00:36:11.452Z,69.09
2018-05-14T00:37:11.439Z,68.62
2018-05-14T00:38:11.426Z,69.19
2018-05-14T00:39:11.410Z,69.29
2018-05-14T00:40:11.400Z,69.19
2018-05-14T00:41:11.388Z,68.71
2018-05-14T00:42:11.370Z,69.09
2018-05-14T00:43:11.357Z,69.38
2018-05-14T00:44:11.343Z,69.29
2018-05-14T00:45:11.332Z,69.00
2018-05-14T00:46:11.316Z,69.09
2018-05-14T00:47:11.302Z,68.62
2018-05-14T00:48:11.291Z,69.09
2018-05-14T00:49:11.276Z,69.38
2018-05-14T00:50:11.265Z,69.67
2018-05-14T00:51:11.247Z,69.00
2018-05-14T00:52:11.235Z,69.95
2018-05-14T00:53:11.223Z,69.38
2018-05-14T00:54:11.208Z,69.57
2018-05-14T00:55:11.195Z,69.00
2018-05-14T00:56:11.180Z,69.00
2018-05-14T00:57:11.166Z,70.05
2018-05-14T00:58:11.155Z,70.15
2018-05-14T00:59:11.139Z,69.57
2018-05-14T01:00:11.123Z,69.29
2018-05-14T01:01:11.117Z,69.38
2018-05-14T01:02:11.100Z,69.19
2018-05-14T01:03:11.088Z,69.76
2018-05-14T01:04:11.070Z,69.57
2018-05-14T01:05:11.054Z,69.57
2018-05-14T01:06:11.041Z,69.48
2018-05-14T01:07:11.029Z,69.76
2018-05-14T01:08:11.018Z,69.48
2018-05-14T01:09:11.001Z,69.48
2018-05-14T01:10:10.989Z,68.71
2018-05-14T01:11:10.976Z,69.09
2018-05-14T01:12:10.964Z,69.76
2018-05-14T01:13:10.944Z,69.76
2018-05-14T01:14:10.935Z,69.67
2018-05-14T01:15:10.917Z,69.48
2018-05-14T01:16:10.903Z,69.38
2018-05-14T01:17:10.890Z,69.48
2018-05-14T01:18:10.880Z,69.76
2018-05-14T01:19:10.864Z,69.09
2018-05-14T01:20:10.852Z,69.95
2018-05-14T01:21:10.836Z,69.48
2018-05-14T01:22:10.821Z,69.67
2018-05-14T01:23:10.812Z,69.67
2018-05-14T01:24:10.796Z,68.90
2018-05-14T01:25:10.782Z,69.09
2018-05-14T01:26:10.765Z,69.67
2018-05-14T01:27:10.754Z,69.48
2018-05-14T01:28:10.741Z,69.76
2018-05-14T01:29:10.724Z,68.90
2018-05-14T01:30:10.715Z,68.90
2018-05-14T01:31:10.696Z,69.76
2018-05-14T01:32:10.684Z,69.38
2018-05-14T01:33:10.670Z,69.57
2018-05-14T01:34:10.655Z,69.57
2018-05-14T01:35:10.641Z,69.57
2018-05-14T01:36:10.637Z,69.76
2018-05-14T01:37:10.617Z,69.48
2018-05-14T01:38:10.601Z,69.76
2018-05-14T01:39:10.587Z,69.67
2018-05-14T01:40:10.572Z,69.86
2018-05-14T01:41:10.560Z,69.38
2018-05-14T01:42:10.550Z,69.76
2018-05-14T01:43:10.531Z,69.38
2018-05-14T01:44:10.517Z,69.76
2018-05-14T01:45:10.503Z,69.86
2018-05-14T01:46:10.489Z,69.57
2018-05-14T01:47:10.480Z,70.34
2018-05-14T01:48:10.462Z,69.86
2018-05-14T01:49:10.452Z,70.53
2018-05-14T01:50:10.435Z,70.24
2018-05-14T01:51:10.421Z,69.82
2018-05-14T01:52:10.457Z,70.43
2018-05-14T01:53:10.395Z,70.43
2018-05-14T01:54:10.379Z,70.24
2018-05-14T01:55:10.364Z,70.53
2018-05-14T01:56:10.349Z,69.86
2018-05-14T01:57:10.336Z,69.82
2018-05-14T01:58:10.323Z,69.48
2018-05-14T01:59:10.311Z,69.76
2018-05-14T02:00:10.294Z,70.24
2018-05-14T02:01:10.281Z,69.95
2018-05-14T02:02:10.280Z,69.76
2018-05-14T02:03:10.252Z,70.53
2018-05-14T02:04:10.239Z,70.91
2018-05-14T02:05:10.225Z,70.62
2018-05-14T02:06:10.210Z,70.30
2018-05-14T02:07:10.196Z,70.43
2018-05-14T02:08:10.183Z,70.59
2018-05-14T02:09:10.169Z,70.43
2018-05-14T02:10:10.153Z,70.50
2018-05-14T02:11:10.139Z,70.72
2018-05-14T02:12:10.127Z,70.40
2018-05-14T02:13:10.112Z,71.26
2018-05-14T02:14:10.099Z,70.59
2018-05-14T02:15:10.085Z,70.59
2018-05-14T02:16:10.070Z,70.40
2018-05-14T02:17:10.058Z,71.45
2018-05-14T02:18:10.043Z,71.26
2018-05-14T02:19:10.031Z,71.07
2018-05-14T02:20:10.017Z,71.45
2018-05-14T02:21:10.005Z,71.26
2018-05-14T02:22:09.991Z,71.26
2018-05-14T02:23:09.972Z,70.97
2018-05-14T02:24:09.966Z,70.87
2018-05-14T02:25:09.946Z,71.45
2018-05-14T02:26:09.929Z,71.07
2018-05-14T02:27:09.918Z,70.68
2018-05-14T02:28:09.904Z,71.73
2018-05-14T02:29:09.889Z,71.73
2018-05-14T02:30:09.874Z,71.73
2018-05-14T02:31:09.861Z,72.02
2018-05-14T02:32:09.846Z,72.41
2018-05-14T02:33:09.837Z,72.50
2018-05-14T02:34:09.819Z,72.02
2018-05-14T02:35:09.803Z,71.93
2018-05-14T02:36:09.790Z,72.22
2018-05-14T02:37:09.776Z,72.31
2018-05-14T02:38:09.765Z,72.41
2018-05-14T02:39:09.747Z,72.41
2018-05-14T02:40:09.734Z,72.31
2018-05-14T02:41:09.721Z,72.22
2018-05-14T02:42:09.704Z,72.98
2018-05-14T02:43:09.691Z,73.36
2018-05-14T02:44:09.678Z,73.08
2018-05-14T02:45:09.666Z,73.46
2018-05-14T02:46:09.646Z,73.36
2018-05-14T02:47:09.634Z,73.27
2018-05-14T02:48:09.631Z,73.36
2018-05-14T02:49:09.606Z,73.36
2018-05-14T02:50:09.592Z,73.14
2018-05-14T02:51:09.577Z,73.52
2018-05-14T02:52:09.565Z,73.55
2018-05-14T02:53:09.551Z,73.71
2018-05-14T02:54:09.533Z,72.94
2018-05-14T02:55:09.522Z,73.71
2018-05-14T02:56:09.506Z,74.09
2018-05-14T02:57:09.494Z,73.90
2018-05-14T02:58:09.478Z,73.71
2018-05-14T02:59:09.466Z,73.43
2018-05-14T03:00:09.450Z,74.38
2018-05-14T03:01:09.439Z,73.71
2018-05-14T03:02:09.432Z,73.52
2018-05-14T03:03:09.407Z,73.71
2018-05-14T03:04:09.487Z,73.43
2018-05-14T03:05:09.380Z,74.09
2018-05-14T03:06:09.366Z,73.43
2018-05-14T03:07:09.351Z,74.28
2018-05-14T03:08:09.336Z,74.66
2018-05-14T03:09:09.323Z,74.19
2018-05-14T03:10:09.311Z,74.66
2018-05-14T03:11:09.293Z,74.09
2018-05-14T03:12:09.281Z,73.43
2018-05-14T03:13:09.266Z,74.48
2018-05-14T03:14:09.251Z,74.85
2018-05-14T03:15:09.236Z,74.09
2018-05-14T03:16:09.223Z,74.48
2018-05-14T03:17:09.210Z,74.57
2018-05-14T03:18:09.194Z,74.85
2018-05-14T03:19:09.178Z,74.85
2018-05-14T03:20:09.164Z,74.85
2018-05-14T03:21:09.149Z,75.52
2018-05-14T03:22:09.138Z,74.85
2018-05-14T03:23:09.120Z,75.43
2018-05-14T03:24:09.109Z,75.14
2018-05-14T03:25:09.092Z,75.52
2018-05-14T03:26:09.077Z,75.71
2018-05-14T03:27:09.062Z,76.20
2018-05-14T03:28:09.047Z,75.34
2018-05-14T03:29:09.036Z,75.62
2018-05-14T03:30:09.019Z,75.91
2018-05-14T03:31:09.007Z,75.81
2018-05-14T03:32:08.992Z,76.39
2018-05-14T03:33:08.977Z,76.39
2018-05-14T03:34:08.963Z,75.81
2018-05-14T03:35:08.947Z,76.48
2018-05-14T03:36:08.933Z,76.57
2018-05-14T03:37:08.920Z,76.39
2018-05-14T03:38:08.906Z,75.91
2018-05-14T03:39:08.889Z,76.67
2018-05-14T03:40:08.877Z,76.48
2018-05-14T03:41:08.860Z,76.29
2018-05-14T03:42:08.846Z,76.77
2018-05-14T03:43:08.833Z,76.39
2018-05-14T03:44:08.818Z,76.29
2018-05-14T03:45:08.807Z,76.96
2018-05-14T03:46:08.788Z,76.86
2018-05-14T03:47:08.780Z,77.06
2018-05-14T03:48:08.760Z,76.96
2018-05-14T03:49:08.746Z,76.86
2018-05-14T03:50:08.736Z,76.67
2018-05-14T03:51:08.716Z,76.86
2018-05-14T03:52:08.706Z,76.67
2018-05-14T03:53:08.686Z,77.06
2018-05-14T03:54:08.676Z,76.86
2018-05-14T03:55:08.657Z,76.96
2018-05-14T03:56:08.642Z,76.77
2018-05-14T03:57:08.631Z,76.77
2018-05-14T03:58:08.614Z,76.77
2018-05-14T03:59:08.615Z,76.57
2018-05-14T04:00:08.583Z,77.06
2018-05-14T04:01:08.571Z,76.29
2018-05-14T04:02:08.557Z,76.48
2018-05-14T04:03:08.543Z,76.96
2018-05-14T04:04:08.531Z,76.57
2018-05-14T04:05:08.518Z,75.91
2018-05-14T04:06:08.497Z,76.48
2018-05-14T04:07:08.481Z,76.39
2018-05-14T04:08:08.469Z,76.00
2018-05-14T04:09:08.454Z,76.57
2018-05-14T04:10:08.439Z,76.57
2018-05-14T04:11:08.425Z,76.48
2018-05-14T04:12:08.416Z,76.96
2018-05-14T04:13:08.397Z,77.06
2018-05-14T04:14:08.381Z,76.57
2018-05-14T04:15:08.366Z,76.96
2018-05-14T04:16:08.352Z,76.77
2018-05-14T04:17:08.338Z,76.96
2018-05-14T04:18:08.328Z,77.06
2018-05-14T04:19:08.309Z,76.57
2018-05-14T04:20:08.302Z,76.67
2018-05-14T04:21:08.280Z,76.96
2018-05-14T04:22:08.266Z,76.96
2018-05-14T04:23:08.252Z,76.67
2018-05-14T04:24:08.239Z,77.06
2018-05-14T04:25:08.223Z,75.81
2018-05-14T04:26:08.210Z,76.96
2018-05-14T04:27:08.280Z,76.33
2018-05-14T04:28:08.180Z,76.52
2018-05-14T04:29:08.166Z,76.23
2018-05-14T04:30:08.162Z,76.42
2018-05-14T04:31:08.138Z,76.62
2018-05-14T04:32:08.123Z,76.62
2018-05-14T04:33:08.111Z,76.62
2018-05-14T04:34:08.093Z,76.81
2018-05-14T04:35:08.077Z,76.42
2018-05-14T04:36:08.065Z,76.62
2018-05-14T04:37:08.051Z,76.52
2018-05-14T04:38:08.035Z,76.42
2018-05-14T04:39:08.020Z,76.42
2018-05-14T04:40:08.006Z,76.81
2018-05-14T04:41:07.991Z,76.81
2018-05-14T04:42:07.980Z,77.48
2018-05-14T04:43:07.966Z,77.09
2018-05-14T04:44:07.948Z,76.04
2018-05-14T04:45:07.936Z,76.04
2018-05-14T04:46:07.923Z,76.04
2018-05-14T04:47:07.905Z,76.04
2018-05-14T04:48:07.891Z,76.18
2018-05-14T04:49:07.876Z,75.89
2018-05-14T04:50:07.862Z,75.98
2018-05-14T04:51:07.856Z,75.98
2018-05-14T04:52:07.837Z,76.27
2018-05-14T04:53:07.819Z,76.27
2018-05-14T04:54:07.807Z,75.89
2018-05-14T04:55:07.792Z,75.51
2018-05-14T04:56:07.779Z,75.60
2018-05-14T04:57:07.765Z,74.55
2018-05-14T04:58:07.747Z,74.65
2018-05-14T04:59:07.744Z,74.36
2018-05-14T05:00:07.720Z,74.36
2018-05-14T05:01:07.709Z,74.84
2018-05-14T05:02:07.696Z,74.26
2018-05-14T05:03:07.681Z,74.16
2018-05-14T05:04:07.664Z,74.40
2018-05-14T05:05:07.650Z,74.40
2018-05-14T05:06:07.635Z,73.54
2018-05-14T05:07:07.621Z,73.82
2018-05-14T05:08:07.605Z,73.44
2018-05-14T05:09:07.643Z,73.82
2018-05-14T05:10:07.577Z,73.24
2018-05-14T05:11:07.564Z,74.11
2018-05-14T05:12:07.550Z,73.34
2018-05-14T05:13:07.537Z,74.11
2018-05-14T05:14:07.521Z,74.01
2018-05-14T05:15:07.507Z,73.54
2018-05-14T05:16:07.494Z,72.77
2018-05-14T05:17:07.553Z,73.44
2018-05-14T05:18:07.466Z,73.82
2018-05-14T05:19:07.451Z,73.54
2018-05-14T05:20:07.440Z,73.44
2018-05-14T05:21:07.424Z,72.90
2018-05-14T05:22:07.408Z,72.99
2018-05-14T05:23:07.395Z,73.86
2018-05-14T05:24:07.382Z,73.57
2018-05-14T05:25:07.369Z,73.57
2018-05-14T05:26:07.353Z,72.90
2018-05-14T05:27:07.341Z,72.90
2018-05-14T05:28:07.328Z,73.19
2018-05-14T05:29:07.312Z,72.80
2018-05-14T05:30:07.297Z,73.19
2018-05-14T05:31:07.284Z,72.61
2018-05-14T05:32:07.269Z,71.46
2018-05-14T05:33:07.257Z,71.37
2018-05-14T05:34:07.241Z,72.13
2018-05-14T05:35:07.228Z,70.83
2018-05-14T05:36:07.215Z,71.21
2018-05-14T05:37:07.200Z,71.69
2018-05-14T05:38:07.188Z,70.92
2018-05-14T05:39:07.175Z,71.50
2018-05-14T05:40:07.160Z,70.73
2018-05-14T05:41:07.148Z,70.64
2018-05-14T05:42:07.132Z,70.73
2018-05-14T05:43:07.122Z,71.21
2018-05-14T05:44:07.113Z,70.96
2018-05-14T05:45:07.095Z,70.86
2018-05-14T05:46:07.081Z,70.48
2018-05-14T05:47:07.135Z,70.57
2018-05-14T05:48:07.052Z,70.38
2018-05-14T05:49:07.038Z,69.81
2018-05-14T05:50:07.025Z,69.81
2018-05-14T05:51:07.009Z,69.90
2018-05-14T05:52:06.996Z,69.90
2018-05-14T05:53:06.982Z,69.81
2018-05-14T05:54:06.968Z,69.36
2018-05-14T05:55:06.956Z,69.74
2018-05-14T05:56:06.943Z,70.03
2018-05-14T05:57:06.933Z,69.74
2018-05-14T05:58:06.913Z,69.84
2018-05-14T05:59:06.912Z,69.26
2018-05-14T06:00:06.895Z,69.17
2018-05-14T06:01:06.874Z,68.40
2018-05-14T06:02:06.860Z,67.54
2018-05-14T06:03:06.853Z,68.12
2018-05-14T06:04:06.844Z,68.30
2018-05-14T06:05:06.822Z,67.25
2018-05-14T06:06:06.822Z,67.47
2018-05-14T06:07:06.792Z,66.90
2018-05-14T06:08:06.793Z,67.38
2018-05-14T06:09:06.768Z,66.61
2018-05-14T06:10:06.752Z,66.61
2018-05-14T06:11:06.743Z,67.57
2018-05-14T06:12:06.729Z,67.96
2018-05-14T06:13:06.715Z,66.61
2018-05-14T06:14:06.703Z,65.75
2018-05-14T06:15:06.687Z,65.94
2018-05-14T06:16:06.674Z,66.52
2018-05-14T06:17:06.664Z,65.75
2018-05-14T06:18:06.650Z,66.03
2018-05-14T06:19:06.636Z,65.78
2018-05-14T06:20:06.624Z,65.78
2018-05-14T06:21:06.610Z,65.40
2018-05-14T06:22:06.602Z,65.01
2018-05-14T06:23:06.585Z,64.72
2018-05-14T06:24:06.581Z,65.20
2018-05-14T06:25:06.560Z,65.53
2018-05-14T06:26:06.547Z,66.10
2018-05-14T06:27:06.535Z,65.81
2018-05-14T06:28:06.521Z,65.81
2018-05-14T06:29:06.509Z,65.23
2018-05-14T06:30:06.503Z,65.23
2018-05-14T06:31:06.483Z,64.37
2018-05-14T06:32:06.470Z,64.89
2018-05-14T06:33:06.518Z,65.53
2018-05-14T06:34:06.445Z,65.37
2018-05-14T06:35:06.432Z,65.27
2018-05-14T06:36:06.421Z,65.08
2018-05-14T06:37:06.408Z,65.17
2018-05-14T06:38:06.394Z,64.89
2018-05-14T06:39:06.382Z,64.34
2018-05-14T06:40:06.371Z,64.53
2018-05-14T06:41:06.366Z,63.48
2018-05-14T06:42:06.347Z,62.61
2018-05-14T06:43:06.345Z,62.03
2018-05-14T06:44:06.323Z,61.26
2018-05-14T06:45:06.311Z,61.55
2018-05-14T06:46:06.297Z,62.93
2018-05-14T06:47:06.290Z,61.68
2018-05-14T06:48:06.277Z,62.16
2018-05-14T06:49:06.263Z,62.74
2018-05-14T06:50:06.248Z,62.54
2018-05-14T06:51:06.238Z,62.54
2018-05-14T06:52:06.228Z,61.00
2018-05-14T06:53:06.214Z,61.00
2018-05-14T06:54:06.202Z,60.27
2018-05-14T06:55:06.204Z,60.65
2018-05-14T06:56:06.182Z,59.69
2018-05-14T06:57:06.169Z,60.07
2018-05-14T06:58:06.157Z,59.88
2018-05-14T06:59:06.145Z,59.97
2018-05-14T07:00:06.137Z,59.33
2018-05-14T07:01:06.140Z,59.23
2018-05-14T07:02:06.113Z,59.33
2018-05-14T07:03:06.178Z,59.23
2018-05-14T07:04:06.088Z,60.30
2018-05-14T07:05:06.079Z,60.30
2018-05-14T07:06:06.066Z,59.43
2018-05-14T07:07:06.056Z,60.00
2018-05-14T07:08:06.043Z,59.81
2018-05-14T07:09:06.039Z,58.88
2018-05-14T07:10:06.067Z,58.20
2018-05-14T07:11:06.010Z,58.49
2018-05-14T07:12:06.008Z,58.88
2018-05-14T07:13:05.989Z,58.20
2018-05-14T07:14:05.977Z,58.11
2018-05-14T07:15:05.968Z,57.53
2018-05-14T07:16:05.957Z,58.52
2018-05-14T07:17:05.946Z,58.42
2018-05-14T07:18:05.939Z,59.10
2018-05-14T07:19:05.934Z,59.20
2018-05-14T07:20:05.914Z,57.85
2018-05-14T07:21:05.906Z,57.20
2018-05-14T07:22:05.895Z,57.78
2018-05-14T07:23:05.883Z,57.59
2018-05-14T07:24:05.884Z,57.39
2018-05-14T07:25:05.863Z,57.59
2018-05-14T07:26:05.858Z,56.07
2018-05-14T07:27:05.842Z,55.88
2018-05-14T07:28:05.833Z,55.68
2018-05-14T07:29:05.829Z,54.43
2018-05-14T07:30:05.824Z,54.55
2018-05-14T07:31:05.803Z,53.61
2018-05-14T07:32:05.793Z,52.75
2018-05-14T07:33:05.786Z,52.87
2018-05-14T07:34:05.773Z,50.57
2018-05-14T07:35:05.765Z,51.44
2018-05-14T07:36:05.755Z,51.56
2018-05-14T07:37:05.754Z,50.43
2018-05-14T07:38:05.734Z,48.61
2018-05-14T07:39:05.736Z,48.61
2018-05-14T07:40:05.717Z,46.70
2018-05-14T07:41:05.709Z,46.72
2018-05-14T07:42:05.706Z,46.04
2018-05-14T07:43:05.688Z,45.68
2018-05-14T07:44:05.681Z,44.44
2018-05-14T07:45:05.673Z,45.34
2018-05-14T07:46:05.691Z,43.68
2018-05-14T07:47:05.659Z,43.59
2018-05-14T07:48:05.646Z,42.54
2018-05-14T07:49:05.642Z,42.36
2018-05-14T07:50:05.634Z,41.10
2018-05-14T07:51:05.626Z,41.78
2018-05-14T07:52:05.618Z,41.03
2018-05-14T07:53:05.618Z,42.00
2018-05-14T07:54:05.606Z,41.24
2018-05-14T07:55:05.603Z,40.39
2018-05-14T07:56:05.596Z,39.62
2018-05-14T07:57:05.591Z,39.43
2018-05-14T07:58:05.591Z,37.99
2018-05-14T07:59:05.581Z,36.41
2018-05-14T08:00:05.584Z,36.61
2018-05-14T08:01:05.576Z,37.19
2018-05-14T08:02:05.571Z,37.87
2018-05-14T08:03:05.572Z,37.79
2018-05-14T08:04:05.565Z,36.82
2018-05-14T08:05:05.562Z,38.38
2018-05-14T08:06:05.561Z,36.55
2018-05-14T08:07:05.558Z,36.25
2018-05-14T08:08:05.555Z,37.45
2018-05-14T08:09:05.554Z,35.39
2018-05-14T08:10:05.557Z,34.03
2018-05-14T08:11:05.552Z,34.73
2018-05-14T08:12:05.547Z,34.91
2018-05-14T08:13:05.545Z,34.71
2018-05-14T08:14:05.544Z,35.20
2018-05-14T08:15:05.552Z,34.31
2018-05-14T08:16:05.546Z,34.11
2018-05-14T08:17:05.541Z,34.19
2018-05-14T08:18:05.541Z,33.82
2018-05-14T08:19:05.540Z,33.73
2018-05-14T08:20:05.550Z,32.06
2018-05-14T08:21:05.546Z,32.75
2018-05-14T08:22:05.537Z,33.04
2018-05-14T08:23:05.535Z,31.85
2018-05-14T08:24:05.538Z,34.31
2018-05-14T08:25:05.536Z,33.93
2018-05-14T08:26:05.533Z,33.54
2018-05-14T08:27:05.534Z,33.83
2018-05-14T08:28:05.535Z,34.24
2018-05-14T08:29:05.538Z,33.26
2018-05-14T08:30:05.533Z,33.38
2018-05-14T08:31:05.542Z,31.52
2018-05-14T08:32:05.534Z,31.62
2018-05-14T08:33:05.533Z,29.95
2018-05-14T08:34:05.532Z,31.82
2018-05-14T08:35:05.531Z,31.22
2018-05-14T08:36:05.544Z,31.23
2018-05-14T08:37:05.589Z,30.73
2018-05-14T08:38:05.531Z,30.54
2018-05-14T08:39:05.535Z,31.80
2018-05-14T08:40:05.533Z,33.26
2018-05-14T08:41:05.533Z,31.72
2018-05-14T08:42:05.534Z,29.38
2018-05-14T08:43:05.530Z,28.01
2018-05-14T08:44:05.535Z,28.11
2018-05-14T08:45:05.533Z,28.89
2018-05-14T08:46:05.533Z,29.18
2018-05-14T08:47:05.531Z,29.28
2018-05-14T08:48:05.656Z,29.47
2018-05-14T08:49:05.530Z,31.74
2018-05-14T08:50:05.531Z,29.49
2018-05-14T08:51:05.529Z,29.08
2018-05-14T08:52:05.538Z,29.88
2018-05-14T08:53:05.529Z,30.47
2018-05-14T08:54:05.605Z,27.83
2018-05-14T08:55:05.538Z,26.64
2018-05-14T08:56:05.528Z,27.12
2018-05-14T08:57:05.527Z,27.61
2018-05-14T08:58:05.529Z,27.02
2018-05-14T08:59:05.526Z,28.68
2018-05-14T09:00:05.530Z,29.95
2018-05-14T09:01:05.524Z,30.05
2018-05-14T09:02:05.521Z,29.07
2018-05-14T09:03:05.523Z,30.15
2018-05-14T09:04:05.522Z,31.02
2018-05-14T09:05:05.526Z,29.95
2018-05-14T09:06:05.519Z,29.66
2018-05-14T09:07:05.517Z,26.64
2018-05-14T09:08:05.518Z,27.51
2018-05-14T09:09:05.515Z,28.50
2018-05-14T09:10:05.517Z,27.91
2018-05-14T09:11:05.513Z,26.64
2018-05-14T09:12:05.512Z,27.52
2018-05-14T09:13:05.511Z,27.15
2018-05-14T09:14:05.510Z,26.86
2018-05-14T09:15:05.511Z,26.66
2018-05-14T09:16:05.514Z,27.16
2018-05-14T09:17:05.509Z,27.65
2018-05-14T09:18:05.505Z,29.61
2018-05-14T09:19:05.507Z,26.10
2018-05-14T09:20:05.507Z,25.61
2018-05-14T09:21:05.502Z,25.62
2018-05-14T09:22:05.507Z,24.54
2018-05-14T09:23:05.499Z,25.04
2018-05-14T09:24:05.496Z,25.23
2018-05-14T09:25:05.495Z,24.82
2018-05-14T09:26:05.500Z,25.43
2018-05-14T09:27:05.498Z,25.62
2018-05-14T09:28:05.492Z,25.23
2018-05-14T09:29:05.490Z,27.19
2018-05-14T09:30:05.489Z,24.85
2018-05-14T09:31:05.486Z,24.55
2018-05-14T09:32:05.489Z,23.88
2018-05-14T09:33:05.485Z,24.47
2018-05-14T09:34:05.483Z,25.74
2018-05-14T09:35:05.483Z,24.57
2018-05-14T09:36:05.480Z,24.18
2018-05-14T09:37:05.482Z,23.97
2018-05-14T09:38:05.477Z,25.15
2018-05-14T09:39:05.479Z,24.64
2018-05-14T09:40:05.476Z,23.96
2018-05-14T09:41:05.476Z,23.97
2018-05-14T09:42:05.473Z,24.15
2018-05-14T09:43:05.473Z,23.76
2018-05-14T09:44:05.473Z,23.27
2018-05-14T09:45:05.471Z,24.15
2018-05-14T09:46:05.471Z,24.95
2018-05-14T09:47:05.474Z,22.21
2018-05-14T09:48:05.469Z,21.61
2018-05-14T09:49:05.471Z,21.62
2018-05-14T09:50:05.471Z,21.22
2018-05-14T09:51:05.468Z,20.33
2018-05-14T09:52:05.469Z,21.22
2018-05-14T09:53:05.465Z,20.34
2018-05-14T09:54:05.466Z,20.43
2018-05-14T09:55:05.466Z,20.72
2018-05-14T09:56:05.466Z,21.30
2018-05-14T09:57:05.462Z,21.80
2018-05-14T09:58:05.461Z,20.92
2018-05-14T09:59:05.460Z,19.55
2018-05-14T10:00:05.460Z,20.23
2018-05-14T10:01:05.462Z,21.32
2018-05-14T10:02:05.458Z,19.85
2018-05-14T10:03:05.457Z,21.12
2018-05-14T10:04:05.460Z,19.95
2018-05-14T10:05:05.461Z,19.26
2018-05-14T10:06:05.461Z,19.75
2018-05-14T10:07:05.457Z,19.96
2018-05-14T10:08:05.458Z,20.26
2018-05-14T10:09:05.461Z,18.79
2018-05-14T10:10:05.464Z,19.18
2018-05-14T10:11:05.459Z,18.79
2018-05-14T10:12:05.460Z,19.20
2018-05-14T10:13:05.480Z,21.16
2018-05-14T10:14:05.466Z,20.18
2018-05-14T10:15:05.464Z,17.14
2018-05-14T10:16:05.470Z,16.74
2018-05-14T10:17:05.464Z,17.32
2018-05-14T10:18:05.465Z,18.10
2018-05-14T10:19:05.468Z,18.48
2018-05-14T10:20:05.468Z,18.98
2018-05-14T10:21:05.475Z,20.96
2018-05-14T10:22:05.472Z,16.93
2018-05-14T10:23:05.474Z,16.44
2018-05-14T10:24:05.481Z,18.40
2018-05-14T10:25:05.481Z,18.11
2018-05-14T10:26:05.481Z,16.44
2018-05-14T10:27:05.483Z,17.32
2018-05-14T10:28:05.484Z,17.90
2018-05-14T10:29:05.491Z,17.80
2018-05-14T10:30:05.490Z,16.81
2018-05-14T10:31:05.492Z,17.60
2018-05-14T10:32:05.582Z,18.39
2018-05-14T10:33:05.498Z,18.21
2018-05-14T10:34:05.500Z,19.10
2018-05-14T10:35:05.505Z,18.23
2018-05-14T10:36:05.506Z,16.87
2018-05-14T10:37:05.516Z,15.50
2018-05-14T10:38:05.511Z,15.69
2018-05-14T10:39:05.519Z,16.28
2018-05-14T10:40:05.517Z,16.49
2018-05-14T10:41:05.531Z,16.39
2018-05-14T10:42:05.524Z,16.39
2018-05-14T10:43:05.529Z,15.53
2018-05-14T10:44:05.531Z,15.23
2018-05-14T10:45:05.545Z,15.72
2018-05-14T10:46:05.538Z,16.61
2018-05-14T10:47:05.543Z,15.83
2018-05-14T10:48:05.548Z,14.74
2018-05-14T10:49:05.551Z,15.42
2018-05-14T10:50:05.557Z,15.61
2018-05-14T10:51:05.558Z,15.92
2018-05-14T10:52:05.564Z,14.64
2018-05-14T10:53:05.566Z,14.64
2018-05-14T10:54:05.572Z,14.43
2018-05-14T10:55:05.580Z,14.73
2018-05-14T10:56:05.581Z,15.42
2018-05-14T10:57:05.587Z,15.23
2018-05-14T10:58:05.588Z,15.14
2018-05-14T10:59:05.597Z,14.56
2018-05-14T11:00:05.600Z,15.64
2018-05-14T11:01:05.673Z,15.55
2018-05-14T11:02:05.609Z,12.90
2018-05-14T11:03:05.613Z,13.39
2018-05-14T11:04:05.697Z,12.60
2018-05-14T11:05:05.624Z,14.06
2018-05-14T11:06:05.631Z,13.97
2018-05-14T11:07:05.635Z,13.48
2018-05-14T11:08:05.641Z,16.33
2018-05-14T11:09:05.644Z,15.16
2018-05-14T11:10:05.651Z,12.49
2018-05-14T11:11:05.655Z,13.28
2018-05-14T11:12:05.660Z,14.36
2018-05-14T11:13:05.667Z,13.96
2018-05-14T11:14:05.672Z,14.56
2018-05-14T11:15:05.676Z,13.19
2018-05-14T11:16:05.685Z,13.31
2018-05-14T11:17:05.687Z,13.20
2018-05-14T11:18:05.692Z,13.11
2018-05-14T11:19:05.701Z,12.41
2018-05-14T11:20:05.710Z,13.29
2018-05-14T11:21:05.713Z,12.50
2018-05-14T11:22:05.717Z,12.20
2018-05-14T11:23:05.729Z,13.87
2018-05-14T11:24:05.729Z,13.67
2018-05-14T11:25:05.736Z,15.54
2018-05-14T11:26:05.743Z,15.45
2018-05-14T11:27:05.745Z,14.87
2018-05-14T11:28:05.752Z,13.60
2018-05-14T11:29:05.762Z,12.30
2018-05-14T11:30:05.766Z,12.40
2018-05-14T11:31:05.772Z,12.20
2018-05-14T11:32:05.776Z,12.30
2018-05-14T11:33:05.781Z,11.91
2018-05-14T11:34:05.787Z,12.99
2018-05-14T11:35:05.792Z,15.36
2018-05-14T11:36:05.807Z,13.10
2018-05-14T11:37:05.805Z,13.50
2018-05-14T11:38:05.812Z,11.63
2018-05-14T11:39:05.820Z,11.44
2018-05-14T11:40:05.847Z,10.94
2018-05-14T11:41:05.832Z,11.23
2018-05-14T11:42:05.839Z,11.02
2018-05-14T11:43:05.845Z,12.10
2018-05-14T11:44:05.850Z,12.49
2018-05-14T11:45:05.858Z,11.90
2018-05-14T11:46:05.863Z,13.39
2018-05-14T11:47:05.869Z,12.79
2018-05-14T11:48:05.884Z,12.30
2018-05-14T11:49:05.884Z,12.31
2018-05-14T11:50:05.890Z,13.10
2018-05-14T11:51:05.895Z,11.13
2018-05-14T11:52:05.902Z,12.81
2018-05-14T11:53:05.907Z,11.53
2018-05-14T11:54:05.916Z,11.93
2018-05-14T11:55:05.922Z,12.22
2018-05-14T11:56:05.927Z,11.13
2018-05-14T11:57:05.944Z,11.92
2018-05-14T11:58:05.941Z,11.72
2018-05-14T11:59:05.960Z,11.92
2018-05-14T12:00:05.954Z,13.11
2018-05-14T12:01:05.961Z,12.13
2018-05-14T12:02:05.968Z,11.73
2018-05-14T12:03:06.064Z,11.84
2018-05-14T12:04:05.985Z,11.35
2018-05-14T12:05:05.986Z,11.36
2018-05-14T12:06:05.995Z,10.86
2018-05-14T12:07:06.013Z,10.16
2018-05-14T12:08:06.009Z,11.04
2018-05-14T12:09:06.016Z,11.63
2018-05-14T12:10:06.049Z,11.72
2018-05-14T12:11:06.031Z,12.13
2018-05-14T12:12:06.055Z,10.45
2018-05-14T12:13:06.042Z,12.13
2018-05-14T12:14:06.049Z,10.95
2018-05-14T12:15:06.057Z,9.75
2018-05-14T12:16:06.141Z,10.24
2018-05-14T12:17:06.073Z,12.30
2018-05-14T12:18:06.152Z,12.21
2018-05-14T12:19:06.082Z,11.32
2018-05-14T12:20:06.101Z,11.52
2018-05-14T12:21:06.113Z,11.72
2018-05-14T12:22:06.102Z,11.83
2018-05-14T12:23:06.111Z,11.93
2018-05-14T12:24:06.119Z,11.84
2018-05-14T12:25:06.126Z,11.55
2018-05-14T12:26:06.132Z,11.66
2018-05-14T12:27:06.137Z,11.26
2018-05-14T12:28:06.144Z,11.85
2018-05-14T12:29:06.151Z,10.57
2018-05-14T12:30:06.162Z,10.65
2018-05-14T12:31:06.171Z,11.44
2018-05-14T12:32:06.176Z,11.13
2018-05-14T12:33:06.181Z,11.82
2018-05-14T12:34:06.185Z,11.32
2018-05-14T12:35:06.194Z,11.22
2018-05-14T12:36:06.203Z,12.02
2018-05-14T12:37:06.210Z,12.12
2018-05-14T12:38:06.212Z,11.81
2018-05-14T12:39:06.218Z,12.30
2018-05-14T12:40:06.228Z,13.09
2018-05-14T12:41:06.233Z,14.18
2018-05-14T12:42:06.238Z,12.61
2018-05-14T12:43:06.250Z,12.41
2018-05-14T12:44:06.254Z,12.21
2018-05-14T12:45:06.260Z,12.30
2018-05-14T12:46:06.267Z,11.13
2018-05-14T12:47:06.272Z,11.51
2018-05-14T12:48:06.278Z,12.11
2018-05-14T12:49:06.291Z,12.01
2018-05-14T12:50:06.288Z,13.08
2018-05-14T12:51:06.294Z,11.90
2018-05-14T12:52:06.299Z,13.46